WetterOnline ( https://www.wetteronline.de )

Wetter aktuell Stedesand

Aktuelles Wetter: Leck (17m)

6-stündlich | Neueste Meldungen
Ortszeit Temperatur Wetter
Mo, 19.08. 20:00 17.1° C wolkig
Mo, 19.08. 14:00 18.0° C wolkig
Mo, 19.08. 8:00 14.2° C bedeckt
Mo, 19.08. 2:00 13.4° C fast wolkenlos
So, 18.08. 20:00 16.7° C bewölkt
So, 18.08. 14:00 16.7° C Regen
So, 18.08. 8:00 16.1° C bewölkt
So, 18.08. 2:00 14.7° C leicht bewölkt
Ortszeit Temperatur Wetter
Mo, 19.08. 23:00 15.1° C wolkig
Mo, 19.08. 22:50 15.1° C wolkig
Mo, 19.08. 22:40 15.2° C wolkig
Mo, 19.08. 22:30 14.8° C leicht bewölkt
Mo, 19.08. 22:20 14.8° C leicht bewölkt
Mo, 19.08. 22:10 14.6° C fast wolkenlos
Mo, 19.08. 22:00 13.7° C fast wolkenlos
Mo, 19.08. 21:30 14.9° C wolkenlos
Mo, 19.08. 21:00 15.9° C wolkenlos
Mo, 19.08. 20:30 16.1° C bedeckt
Mo, 19.08. 20:00 17.1° C wolkig
Ortszeit Relative Feuchte Sichtweite
Mo, 19.08. 20:00 72% 35 km
Mo, 19.08. 14:00 75% 14 km
Mo, 19.08. 8:00 88% 60 km
Mo, 19.08. 2:00 96% 25 km
So, 18.08. 20:00 84% 30 km
So, 18.08. 14:00 82% 30 km
So, 18.08. 8:00 99% 4.7 km
So, 18.08. 2:00 97% 25 km
Ortszeit Relative Feuchte Sichtweite
Mo, 19.08. 23:00 88% 30 km
Mo, 19.08. 22:50 88% -
Mo, 19.08. 22:40 88% -
Mo, 19.08. 22:30 89% 29 km
Mo, 19.08. 22:20 89% -
Mo, 19.08. 22:10 90% -
Mo, 19.08. 22:00 93% 24 km
Mo, 19.08. 21:30 89% 27 km
Mo, 19.08. 21:00 82% 30 km
Mo, 19.08. 20:30 79% 35 km
Mo, 19.08. 20:00 72% 35 km
Ortszeit Niederschlagsmenge Niederschlagsart
Mo, 19.08. 20:00 0.8 l/m2 in 12 Std. Regen
Mo, 19.08. 14:00 0.8 l/m2 in 6 Std. Regenschauer
Mo, 19.08. 8:00 1 l/m2 in 12 Std. Regen
Mo, 19.08. 2:00 0.1 l/m2 in 6 Std. Regen
So, 18.08. 20:00 0.3 l/m2 in 12 Std. Regen
So, 18.08. 14:00 0.1 l/m2 in 6 Std. Regen
So, 18.08. 8:00 0.1 l/m2 in 12 Std. -
So, 18.08. 2:00 0.1 l/m2 in 6 Std. Regen
Ortszeit Niederschlagsmenge Niederschlagsart
Mo, 19.08. 23:00 0.0 l/m2 in 1 Std. -
Mo, 19.08. 22:50 keine Meldung -
Mo, 19.08. 22:40 keine Meldung -
Mo, 19.08. 22:30 0.0 l/m2 in 1 Std. -
Mo, 19.08. 22:20 keine Meldung -
Mo, 19.08. 22:10 keine Meldung -
Mo, 19.08. 22:00 0.0 l/m2 in 1 Std. -
Mo, 19.08. 21:30 0.0 l/m2 in 1 Std. -
Mo, 19.08. 21:00 0.0 l/m2 in 1 Std. -
Mo, 19.08. 20:30 0.0 l/m2 in 1 Std. -
Mo, 19.08. 20:00 0.0 l/m2 in 1 Std. Regen
Ortszeit Stärke Spitze Richtung
km/h Bft. km/h Grad Sektor
Mo, 19.08. 20:00 17 3 52 230° SW
Mo, 19.08. 14:00 29 5 50 240° SW
Mo, 19.08. 8:00 17 3 30 260° W
Mo, 19.08. 2:00 9 2 22 200° S
So, 18.08. 20:00 14 3 36 230° SW
So, 18.08. 14:00 17 3 31 190° S
So, 18.08. 8:00 11 2 18 170° S
So, 18.08. 2:00 9 2 17 170° S
Ortszeit Stärke Spitze Richtung
km/h Bft. km/h Grad Sektor
Mo, 19.08. 23:00 7 2 15 210° SW
Mo, 19.08. 22:50 7 2 - 210° SW
Mo, 19.08. 22:40 6 1 - 210° SW
Mo, 19.08. 22:30 7 2 14 220° SW
Mo, 19.08. 22:20 7 2 - 220° SW
Mo, 19.08. 22:10 7 2 - 230° SW
Mo, 19.08. 22:00 7 2 18 190° S
Mo, 19.08. 21:30 7 2 18 210° SW
Mo, 19.08. 21:00 13 3 28 230° SW
Mo, 19.08. 20:30 9 2 28 200° S
Mo, 19.08. 20:00 17 3 41 230° SW
Ortszeit Untergrenze Bedeckung Gattung
total tief tief mittel hoch
Mo, 19.08. 20:00 2400 m 8/8 2/8 - - -
Mo, 19.08. 14:00 570 m 6/8 6/8 - - -
Mo, 19.08. 8:00 270 m 8/8 8/8 - - -
Mo, 19.08. 2:00 2100 m 0/8 0/8 - - -
So, 18.08. 20:00 600 m 7/8 7/8 - - -
So, 18.08. 14:00 510 m 8/8 8/8 - - -
So, 18.08. 8:00 60 m 8/8 7/8 - - -
So, 18.08. 2:00 660 m 6/8 1/8 - - -
Ortszeit Bedeckungsgrad in Achtel und Wolkenuntergrenze
Mo, 19.08. 23:00 3(840m) 7(4200m) 7(5700m)
Mo, 19.08. 22:50 3(840m) 7(4200m) 7(5700m)
Mo, 19.08. 22:40 4(840m) 6(2700m) 6(4200m)
Mo, 19.08. 22:30 1(720m) 3(990m) 4(2700m)
Mo, 19.08. 22:20 1(720m) 2(2700m)
Mo, 19.08. 22:10 1(690m)
Mo, 19.08. 22:00 1(690m)
Mo, 19.08. 21:30 keine Wolken
Mo, 19.08. 21:00 keine Wolken
Mo, 19.08. 20:30 8(3300m)
Mo, 19.08. 20:00 2(2400m) 7(3300m) 8(4500m)
Ortszeit Luftdruck NN (hPa) Tendenz (hPa in 3 Std.)
Mo, 19.08. 20:00 1014 + 0,8
Mo, 19.08. 14:00 1012 + 1,5
Mo, 19.08. 8:00 1009 + 1,5
Mo, 19.08. 2:00 1007 + 0,7
So, 18.08. 20:00 1005 + 0,9
So, 18.08. 14:00 1004 - 0,1
So, 18.08. 8:00 1005 - 0,1
So, 18.08. 2:00 1005 + 0,2
Ortszeit Luftdruck NN (hPa) Tendenz (hPa in 3 Std.)
Mo, 19.08. 23:00 1015 + 1,0
Mo, 19.08. 22:50 1015 keine Meldung
Mo, 19.08. 22:40 1016 keine Meldung
Mo, 19.08. 22:30 1016 + 1,1
Mo, 19.08. 22:20 1016 keine Meldung
Mo, 19.08. 22:10 1016 keine Meldung
Mo, 19.08. 22:00 1015 + 1,3
Mo, 19.08. 21:30 1015 + 1,4
Mo, 19.08. 21:00 1015 + 1,3
Mo, 19.08. 20:30 1015 + 1,0
Mo, 19.08. 20:00 1014 + 0,8
Ortszeit Schneehöhe (cm)
Mo, 19.08. 20:00 -
Mo, 19.08. 14:00 -
Mo, 19.08. 8:00 -
Mo, 19.08. 2:00 -
So, 18.08. 20:00 -
So, 18.08. 14:00 -
So, 18.08. 8:00 -
So, 18.08. 2:00 -
Ortszeit Schneehöhe (cm)
Mo, 19.08. 23:00 -
Mo, 19.08. 22:50 -
Mo, 19.08. 22:40 -
Mo, 19.08. 22:30 -
Mo, 19.08. 22:20 -
Mo, 19.08. 22:10 -
Mo, 19.08. 22:00 -
Mo, 19.08. 21:30 -
Mo, 19.08. 21:00 -
Mo, 19.08. 20:30 -
Mo, 19.08. 20:00 -
Link zu dieser Seite / Seite empfehlen

Das Wetter in ...